Time,TemperatureF,DewpointF,PressureIn,WindDirection,WindDirectionDegrees,WindSpeedMPH,WindSpeedGustMPH,Humidity,HourlyPrecipIn,Conditions,Clouds,dailyrainin,SoftwareType,DateUTC
2014-02-22 08:10:00,33.9,27.1,30.00,SW,233,0.0,0.0,76,0.00,,,0.00,Wunderground v.1.15,2014-02-22 14:10:00,
2014-02-22 08:11:00,34.0,27.2,30.00,SW,233,0.0,0.0,76,0.00,,,0.00,Wunderground v.1.15,2014-02-22 14:11:00,
2014-02-22 08:12:00,34.1,27.3,30.00,SW,233,0.0,0.0,76,0.00,,,0.00,Wunderground v.1.15,2014-02-22 14:12:00,
2014-02-22 08:14:00,34.4,27.6,30.00,SW,233,0.0,0.0,76,0.00,,,0.00,Wunderground v.1.15,2014-02-22 14:14:00,
2014-02-22 08:15:00,34.5,27.4,30.00,SW,233,0.0,0.0,75,0.00,,,0.00,Wunderground v.1.15,2014-02-22 14:15:00,
2014-02-22 08:20:00,35.7,27.9,30.00,SW,233,0.0,0.0,73,0.00,,,0.00,Wunderground v.1.15,2014-02-22 14:20:00,
2014-02-22 08:23:00,36.2,28.0,30.00,SW,233,0.0,0.0,72,0.00,,,0.00,Wunderground v.1.15,2014-02-22 14:23:00,
2014-02-22 08:29:00,36.9,28.4,30.00,SW,233,0.0,0.0,71,0.00,,,0.00,Wunderground v.1.15,2014-02-22 14:29:00,
2014-02-22 08:35:00,38.2,28.6,29.99,South,181,0.0,0.0,68,0.00,,,0.00,Wunderground v.1.15,2014-02-22 14:35:00,
2014-02-22 08:40:00,38.5,28.5,29.99,South,181,0.0,0.0,67,0.00,,,0.00,Wunderground v.1.15,2014-02-22 14:40:00,
2014-02-22 08:46:00,39.2,30.9,29.99,South,181,0.0,0.0,72,0.00,,,0.00,Wunderground v.1.15,2014-02-22 14:46:00,
2014-02-22 08:52:00,40.4,31.0,29.99,South,180,0.0,0.0,69,0.00,,,0.00,Wunderground v.1.15,2014-02-22 14:52:00,
2014-02-22 08:58:00,41.1,32.1,29.99,South,180,0.0,0.0,70,0.00,,,0.00,Wunderground v.1.15,2014-02-22 14:58:00,
2014-02-22 09:03:00,41.9,31.7,29.99,South,179,0.0,0.0,67,0.00,,,0.00,Wunderground v.1.15,2014-02-22 15:03:00,
2014-02-22 09:09:00,42.5,33.0,29.99,South,180,0.0,0.0,69,0.00,,,0.00,Wunderground v.1.15,2014-02-22 15:09:00,
2014-02-22 09:15:00,43.2,34.1,29.98,South,179,0.0,0.0,70,0.00,,,0.00,Wunderground v.1.15,2014-02-22 15:15:00,
2014-02-22 09:21:00,44.1,33.8,29.98,SE,131,0.0,0.0,67,0.00,,,0.00,Wunderground v.1.15,2014-02-22 15:21:00,
2014-02-22 09:26:00,44.9,34.6,29.98,SE,129,0.0,0.0,67,0.00,,,0.00,Wunderground v.1.15,2014-02-22 15:26:00,
2014-02-22 09:32:00,46.3,34.4,29.98,SE,128,0.0,0.0,63,0.00,,,0.00,Wunderground v.1.15,2014-02-22 15:32:00,
2014-02-22 09:38:00,48.3,34.2,29.98,SE,128,0.0,0.0,58,0.00,,,0.00,Wunderground v.1.15,2014-02-22 15:38:00,
2014-02-22 09:43:00,49.9,35.7,29.98,ENE,77,0.0,0.0,58,0.00,,,0.00,Wunderground v.1.15,2014-02-22 15:43:00,
2014-02-22 09:49:00,51.0,34.0,29.98,ENE,75,0.0,0.0,52,0.00,,,0.00,Wunderground v.1.15,2014-02-22 15:49:00,
2014-02-22 09:55:00,52.2,32.6,29.98,NNW,347,0.0,0.0,47,0.00,,,0.00,Wunderground v.1.15,2014-02-22 15:55:00,
2014-02-22 10:00:00,53.7,33.4,29.97,SW,231,0.0,2.0,46,0.00,,,0.00,Wunderground v.1.15,2014-02-22 16:00:00,
2014-02-22 10:06:00,55.8,33.6,29.97,SW,226,1.0,3.0,43,0.00,,,0.00,Wunderground v.1.15,2014-02-22 16:06:00,
2014-02-22 10:11:00,57.0,31.6,29.97,WNW,300,3.0,3.0,38,0.00,,,0.00,Wunderground v.1.15,2014-02-22 16:11:00,
2014-02-22 10:17:00,57.6,31.5,29.97,SW,228,3.0,8.0,37,0.00,,,0.00,Wunderground v.1.15,2014-02-22 16:17:00,
2014-02-22 10:23:00,58.3,31.4,29.97,WSW,255,4.0,7.0,36,0.00,,,0.00,Wunderground v.1.15,2014-02-22 16:23:00,
2014-02-22 10:29:00,58.7,31.8,29.96,West,263,5.0,7.0,36,0.00,,,0.00,Wunderground v.1.15,2014-02-22 16:29:00,
2014-02-22 10:34:00,59.0,31.4,29.97,SW,219,4.0,5.0,35,0.00,,,0.00,Wunderground v.1.15,2014-02-22 16:34:00,
2014-02-22 10:40:00,59.3,32.3,29.96,West,278,4.0,5.0,36,0.00,,,0.00,Wunderground v.1.15,2014-02-22 16:40:00,
2014-02-22 10:46:00,59.8,32.1,29.95,WNW,287,5.0,9.0,35,0.00,,,0.00,Wunderground v.1.15,2014-02-22 16:46:00,
2014-02-22 10:52:00,60.3,33.2,29.95,SW,225,4.0,4.0,36,0.00,,,0.00,Wunderground v.1.15,2014-02-22 16:52:00,
2014-02-22 10:58:00,61.2,31.8,29.95,SW,232,3.0,5.0,33,0.00,,,0.00,Wunderground v.1.15,2014-02-22 16:58:00,
2014-02-22 11:04:00,61.8,32.4,29.94,WSW,240,3.0,5.0,33,0.00,,,0.00,Wunderground v.1.15,2014-02-22 17:04:00,
2014-02-22 11:10:00,62.3,32.0,29.94,West,277,3.0,3.0,32,0.00,,,0.00,Wunderground v.1.15,2014-02-22 17:10:00,
2014-02-22 11:15:00,62.6,33.1,29.94,SW,228,3.0,7.0,33,0.00,,,0.00,Wunderground v.1.15,2014-02-22 17:15:00,
2014-02-22 11:21:00,63.5,33.1,29.93,SW,235,3.0,5.0,32,0.00,,,0.00,Wunderground v.1.15,2014-02-22 17:21:00,
2014-02-22 11:27:00,63.9,32.6,29.93,West,266,4.0,7.0,31,0.00,,,0.00,Wunderground v.1.15,2014-02-22 17:27:00,
2014-02-22 11:33:00,64.2,31.3,29.93,West,259,5.0,12.0,29,0.00,,,0.00,Wunderground v.1.15,2014-02-22 17:33:00,
2014-02-22 11:38:00,64.0,31.9,29.93,WNW,290,6.0,12.0,30,0.00,,,0.00,Wunderground v.1.15,2014-02-22 17:38:00,
2014-02-22 11:44:00,64.4,32.3,29.93,WSW,249,6.0,7.0,30,0.00,,,0.00,Wunderground v.1.15,2014-02-22 17:44:00,
2014-02-22 11:50:00,64.6,31.6,29.92,WNW,289,5.0,9.0,29,0.00,,,0.00,Wunderground v.1.15,2014-02-22 17:50:00,
2014-02-22 11:56:00,64.4,31.4,29.92,WNW,293,6.0,12.0,29,0.00,,,0.00,Wunderground v.1.15,2014-02-22 17:56:00,
2014-02-22 12:02:00,64.3,32.2,29.92,WSW,256,6.0,7.0,30,0.00,,,0.00,Wunderground v.1.15,2014-02-22 18:02:00,
2014-02-22 12:08:00,64.4,31.4,29.91,SW,221,5.0,7.0,29,0.00,,,0.00,Wunderground v.1.15,2014-02-22 18:08:00,
2014-02-22 12:14:00,64.7,31.7,29.91,WSW,254,4.0,12.0,29,0.00,,,0.00,Wunderground v.1.15,2014-02-22 18:14:00,
2014-02-22 12:19:00,65.1,32.0,29.90,West,276,5.0,12.0,29,0.00,,,0.00,Wunderground v.1.15,2014-02-22 18:19:00,
2014-02-22 17:20:00,65.1,33.7,29.81,West,269,1.0,15.0,31,0.00,,,0.00,Wunderground v.1.15,2014-02-22 23:20:00,
2014-02-22 17:26:00,64.8,33.4,29.81,SW,222,0.0,15.0,31,0.00,,,0.00,Wunderground v.1.15,2014-02-22 23:26:00,
2014-02-22 17:31:00,65.0,34.4,29.81,West,267,0.0,15.0,32,0.00,,,0.00,Wunderground v.1.15,2014-02-22 23:31:00,
2014-02-22 17:37:00,64.8,33.4,29.81,West,267,0.0,15.0,31,0.00,,,0.00,Wunderground v.1.15,2014-02-22 23:37:00,
2014-02-22 17:43:00,64.3,33.8,29.81,WNW,283,1.0,15.0,32,0.00,,,0.00,Wunderground v.1.15,2014-02-22 23:43:00,
2014-02-22 17:49:00,63.4,33.8,29.81,WNW,283,1.0,15.0,33,0.00,,,0.00,Wunderground v.1.15,2014-02-22 23:49:00,
2014-02-22 17:54:00,62.4,34.4,29.82,West,278,0.0,15.0,35,0.00,,,0.00,Wunderground v.1.15,2014-02-22 23:54:00,
2014-02-22 18:00:00,61.2,34.0,29.82,West,278,0.0,0.0,36,0.00,,,0.00,Wunderground v.1.15,2014-02-23 00:00:00,
2014-02-22 18:06:00,60.0,35.0,29.82,West,278,0.0,0.0,39,0.00,,,0.00,Wunderground v.1.15,2014-02-23 00:06:00,
2014-02-22 18:12:00,58.9,34.6,29.82,West,278,0.0,0.0,40,0.00,,,0.00,Wunderground v.1.15,2014-02-23 00:12:00,
2014-02-22 18:17:00,58.2,34.6,29.83,West,278,0.0,0.0,41,0.00,,,0.00,Wunderground v.1.15,2014-02-23 00:17:00,
2014-02-22 18:23:00,57.2,34.3,29.83,West,278,0.0,0.0,42,0.00,,,0.00,Wunderground v.1.15,2014-02-23 00:23:00,
2014-02-22 18:29:00,56.5,34.8,29.83,West,278,0.0,1.0,44,0.00,,,0.00,Wunderground v.1.15,2014-02-23 00:29:00,
2014-02-22 18:35:00,56.0,34.9,29.83,SSW,204,0.0,1.0,45,0.00,,,0.00,Wunderground v.1.15,2014-02-23 00:35:00,
2014-02-22 18:40:00,55.3,34.9,29.83,SSW,204,0.0,0.0,46,0.00,,,0.00,Wunderground v.1.15,2014-02-23 00:40:00,
2014-02-22 18:46:00,54.5,35.2,29.83,SSW,204,0.0,0.0,48,0.00,,,0.00,Wunderground v.1.15,2014-02-23 00:46:00,
2014-02-22 18:52:00,53.4,35.2,29.84,SSW,204,0.0,0.0,50,0.00,,,0.00,Wunderground v.1.15,2014-02-23 00:52:00,
2014-02-22 18:58:00,52.3,35.2,29.84,SSW,205,0.0,0.0,52,0.00,,,0.00,Wunderground v.1.15,2014-02-23 00:58:00,
2014-02-22 19:03:00,51.9,35.3,29.84,SSW,205,0.0,0.0,53,0.00,,,0.00,Wunderground v.1.15,2014-02-23 01:03:00,
2014-02-22 19:09:00,51.4,35.3,29.84,SW,224,0.0,0.0,54,0.00,,,0.00,Wunderground v.1.15,2014-02-23 01:09:00,
2014-02-22 19:15:00,50.8,35.2,29.85,SW,236,0.0,2.0,55,0.00,,,0.00,Wunderground v.1.15,2014-02-23 01:15:00,